Rogers, Ohio
Current Conditions -  °F | °C
As of 2:51 AM on Thursday 25 Dec 2014 (Local Time) from KPIT Reporting Station
Broken Clouds Broken Clouds  
Wind Chill: 33°   Ceiling: 5500
Heat Index: 39°   Visibility: 10mi
Dew Point: 35°   Wind: 9mph
Humidity: 86%   Direction: 250°WSW
Pressure: 29.69"   Gusts: NA
Location:  40.79°N, 80.63°W
Report Text: KPIT 250751Z 25008KT 10SM FEW019 BKN055 04/02 A2969 RMK AO2 RAB08E36 SLP062 P0000 T00390017
Loading
Personal Weather Stations






























Interactive Weather Map New forecast layout! Learn more

10-Day Weather Forecast

Advertisements
Track Severe Weather on mobile